Time;durP1;ratioP1;P1;durP2;ratioP2;P2;SDS_P1;SDS_P2;PMS_P1;PMS_P2;Temp;Humidity;BMP_temperature;BMP_pressure;BME280_temperature;BME280_humidity;BME280_pressure;Samples;Min_cycle;Max_cycle;Signal;HPM_P1;HPM_P2
2021/04/12 00:02:17;;;;;;;2.97;2.78;;;5.50;99.90;;;;;;5012875;28;20034;-74
2021/04/12 00:05:11;;;;;;;2.83;2.63;;;5.30;99.90;;;;;;5011953;28;20021;-74
2021/04/12 00:07:55;;;;;;;2.97;2.78;;;5.40;99.90;;;;;;5013181;28;20435;-74
2021/04/12 00:10:30;;;;;;;2.55;2.45;;;5.50;99.90;;;;;;5012526;28;20030;-73
2021/04/12 00:13:16;;;;;;;3.20;3.00;;;5.40;99.90;;;;;;5012871;28;20499;-74
2021/04/12 00:16:29;;;;;;;2.55;2.35;;;5.50;99.90;;;;;;5012334;28;20030;-74
2021/04/12 00:19:06;;;;;;;2.60;2.50;;;5.40;99.90;;;;;;4990156;28;20103;-74
2021/04/12 00:21:44;;;;;;;2.25;2.15;;;5.50;99.90;;;;;;5011646;28;20125;-72
2021/04/12 00:24:17;;;;;;;1.60;1.50;;;5.60;99.90;;;;;;5023824;28;20026;-73
2021/04/12 00:26:59;;;;;;;1.70;1.60;;;5.50;99.90;;;;;;5026978;28;20026;-72
2021/04/12 00:29:49;;;;;;;2.20;2.10;;;5.40;99.90;;;;;;5012213;28;20060;-73
2021/04/12 00:32:46;;;;;;;1.70;1.60;;;5.30;99.90;;;;;;5012203;28;20551;-76
2021/04/12 00:35:15;;;;;;;1.83;1.73;;;5.10;99.90;;;;;;5007278;28;20069;-72
2021/04/12 00:37:56;;;;;;;1.77;1.67;;;5.00;99.90;;;;;;5012068;28;20358;-72
2021/04/12 00:40:52;;;;;;;2.03;1.92;;;5.00;99.90;;;;;;5011966;28;20437;-72
2021/04/12 00:43:50;;;;;;;1.90;1.80;;;5.00;99.90;;;;;;5011328;28;20025;-72
2021/04/12 00:46:32;;;;;;;2.15;2.05;;;5.00;99.90;;;;;;4992263;28;20057;-72
2021/04/12 00:49:09;;;;;;;1.98;1.88;;;4.80;99.90;;;;;;5011700;28;20105;-72
2021/04/12 00:52:16;;;;;;;2.50;2.40;;;4.80;99.90;;;;;;5011948;28;20025;-72
2021/04/12 00:55:01;;;;;;;4.30;2.50;;;4.80;99.90;;;;;;5011196;28;20034;-73
2021/04/12 00:57:57;;;;;;;2.80;2.60;;;4.60;99.90;;;;;;5011751;28;20547;-72
2021/04/12 01:00:24;;;;;;;2.95;2.75;;;4.70;99.90;;;;;;5011453;28;20022;-72
2021/04/12 01:03:04;;;;;;;3.10;2.90;;;4.70;99.90;;;;;;5011066;28;20025;-74
2021/04/12 01:05:56;;;;;;;3.22;3.03;;;4.60;99.90;;;;;;5009485;28;20117;-74
2021/04/12 01:08:37;;;;;;;3.33;3.13;;;4.50;99.90;;;;;;5011653;28;20499;-74
2021/04/12 01:11:38;;;;;;;3.47;3.28;;;4.60;99.90;;;;;;5011763;28;20352;-74
2021/04/12 01:14:24;;;;;;;4.07;3.78;;;4.50;99.90;;;;;;5010963;28;20547;-74
2021/04/12 01:17:02;;;;;;;3.58;3.28;;;4.40;99.90;;;;;;5011455;28;20491;-74
2021/04/12 01:19:43;;;;;;;4.50;4.10;;;4.50;99.90;;;;;;5011275;28;20065;-74
2021/04/12 01:22:26;;;;;;;4.20;3.80;;;4.50;99.90;;;;;;5011560;28;20041;-71
2021/04/12 01:25:07;;;;;;;4.53;4.20;;;4.50;99.90;;;;;;5014459;28;20105;-74
2021/04/12 01:27:57;;;;;;;3.45;3.22;;;4.60;99.90;;;;;;5015209;28;20038;-75
2021/04/12 01:30:37;;;;;;;3.70;3.50;;;4.50;99.90;;;;;;5015303;28;20069;-74
2021/04/12 01:33:21;;;;;;;4.07;3.78;;;4.40;99.90;;;;;;5014592;28;20018;-74
2021/04/12 01:36:15;;;;;;;4.60;4.20;;;4.30;99.90;;;;;;5049522;22;20038;-74
2021/04/12 01:39:20;;;;;;;4.97;3.80;;;4.30;99.90;;;;;;5025472;28;20475;-74
2021/04/12 01:42:00;;;;;;;4.53;4.18;;;4.20;99.90;;;;;;5020417;28;20099;-73
2021/04/12 01:44:43;;;;;;;4.78;4.38;;;4.10;99.90;;;;;;5033780;28;20022;-72
2021/04/12 01:47:32;;;;;;;5.10;4.70;;;4.00;99.90;;;;;;5035619;28;20057;-72
2021/04/12 01:50:16;;;;;;;4.88;4.38;;;4.20;99.90;;;;;;5038043;28;20443;-73
2021/04/12 01:52:51;;;;;;;5.32;4.82;;;4.20;99.90;;;;;;5034314;28;20029;-73
2021/04/12 01:55:28;;;;;;;5.38;4.90;;;4.20;99.90;;;;;;5034319;28;20628;-72
2021/04/12 01:58:03;;;;;;;5.22;4.72;;;4.20;99.90;;;;;;5035236;28;20088;-73
2021/04/12 02:00:47;;;;;;;5.18;4.78;;;4.10;99.90;;;;;;5034795;28;20098;-72
2021/04/12 02:03:34;;;;;;;5.80;5.07;;;3.90;99.90;;;;;;5034093;28;20027;-72
2021/04/12 02:06:29;;;;;;;5.57;5.07;;;3.90;99.90;;;;;;5034708;28;20029;-72
2021/04/12 02:09:03;;;;;;;4.22;3.92;;;3.90;99.90;;;;;;5034787;28;20104;-74
2021/04/12 02:11:32;;;;;;;5.15;4.63;;;3.80;99.90;;;;;;5034489;28;20822;-73
2021/04/12 02:14:32;;;;;;;5.63;5.10;;;3.80;99.90;;;;;;5034628;28;20083;-75
2021/04/12 02:17:22;;;;;;;4.38;3.97;;;3.90;99.90;;;;;;5035405;28;20463;-74
2021/04/12 02:20:22;;;;;;;5.65;5.05;;;3.70;99.90;;;;;;5034980;28;20503;-73
2021/04/12 02:23:02;;;;;;;5.07;4.57;;;3.80;99.90;;;;;;5034188;28;20111;-71
2021/04/12 02:25:55;;;;;;;5.47;5.03;;;3.80;99.90;;;;;;5035577;28;20514;-74
2021/04/12 02:28:36;;;;;;;6.82;6.22;;;3.80;99.90;;;;;;5035339;28;20038;-72
2021/04/12 02:31:23;;;;;;;6.45;5.85;;;4.00;99.90;;;;;;5034396;28;20025;-72
2021/04/12 02:34:21;;;;;;;5.63;5.13;;;4.00;99.90;;;;;;5033021;28;20037;-71
2021/04/12 02:37:01;;;;;;;4.97;4.57;;;3.90;99.90;;;;;;5033999;28;20058;-73
2021/04/12 02:39:44;;;;;;;5.35;4.85;;;3.70;99.90;;;;;;5034296;28;20024;-73
2021/04/12 02:42:22;;;;;;;5.38;4.95;;;3.70;99.90;;;;;;5033270;28;20025;-74
2021/04/12 02:45:07;;;;;;;4.68;4.28;;;3.60;99.90;;;;;;5033302;28;20048;-73
2021/04/12 02:47:51;;;;;;;5.63;5.13;;;3.50;99.90;;;;;;5033654;28;20401;-73
2021/04/12 02:50:26;;;;;;;6.30;5.70;;;3.60;99.90;;;;;;5033929;28;20440;-72
2021/04/12 02:53:13;;;;;;;5.72;5.13;;;3.80;99.90;;;;;;5033082;28;20060;-74
2021/04/12 02:55:57;;;;;;;5.18;4.68;;;3.70;99.90;;;;;;5033607;28;20101;-72
2021/04/12 02:58:47;;;;;;;5.57;5.07;;;3.50;99.90;;;;;;5033710;28;20104;-74
2021/04/12 03:01:45;;;;;;;6.00;5.45;;;3.50;99.90;;;;;;5032606;28;20392;-72
2021/04/12 03:05:02;;;;;;;6.18;5.63;;;3.60;99.90;;;;;;5032931;28;20022;-72
2021/04/12 03:07:56;;;;;;;6.95;6.18;;;3.60;99.90;;;;;;5033369;28;20021;-72
2021/04/12 03:10:46;;;;;;;7.10;6.22;;;3.70;99.90;;;;;;5033620;28;20024;-74
2021/04/12 03:13:17;;;;;;;8.70;6.18;;;3.70;99.90;;;;;;5031372;28;20495;-73
2021/04/12 03:15:46;;;;;;;6.95;6.22;;;3.60;99.90;;;;;;5033058;28;20029;-73
2021/04/12 03:18:36;;;;;;;7.00;6.18;;;3.60;99.90;;;;;;5033348;28;20505;-73
2021/04/12 03:21:13;;;;;;;7.30;6.53;;;3.60;99.90;;;;;;5033263;28;20495;-73
2021/04/12 03:24:00;;;;;;;7.95;6.30;;;3.50;99.90;;;;;;5032649;28;20025;-74
2021/04/12 03:26:32;;;;;;;6.68;5.97;;;3.60;99.90;;;;;;5032995;28;20025;-73
2021/04/12 03:29:22;;;;;;;6.38;5.78;;;3.60;99.90;;;;;;5033147;28;20491;-73
2021/04/12 03:32:02;;;;;;;6.85;6.00;;;3.60;99.90;;;;;;5031619;28;20237;-73
2021/04/12 03:34:48;;;;;;;10.32;7.28;;;3.70;99.90;;;;;;5032294;28;20029;-72
2021/04/12 03:37:35;;;;;;;9.50;6.47;;;3.90;99.90;;;;;;5032792;28;20609;-73
2021/04/12 03:40:26;;;;;;;7.57;6.80;;;3.70;99.90;;;;;;5032881;28;20021;-72
2021/04/12 03:43:04;;;;;;;7.88;6.15;;;3.70;99.90;;;;;;5030796;28;20021;-72
2021/04/12 03:45:41;;;;;;;8.15;6.95;;;3.50;99.90;;;;;;5031939;28;20390;-73
2021/04/12 03:48:09;;;;;;;6.82;6.10;;;3.50;99.90;;;;;;5032973;28;20053;-73
2021/04/12 03:50:53;;;;;;;6.47;5.80;;;3.40;99.90;;;;;;5031436;28;20029;-73
2021/04/12 03:53:38;;;;;;;11.98;6.68;;;3.30;99.90;;;;;;5031120;28;20121;-73
2021/04/12 03:56:03;;;;;;;8.55;6.78;;;3.30;99.90;;;;;;5032503;28;20030;-73
2021/04/12 03:58:35;;;;;;;7.82;6.55;;;3.20;99.90;;;;;;5032712;28;20386;-72
2021/04/12 04:01:28;;;;;;;9.05;7.35;;;3.30;99.90;;;;;;5032388;28;20602;-74
2021/04/12 04:03:59;;;;;;;10.30;7.35;;;3.40;99.90;;;;;;5030492;28;20028;-73
2021/04/12 04:06:57;;;;;;;7.85;6.60;;;3.50;99.90;;;;;;5032427;28;20032;-73
2021/04/12 04:09:26;;;;;;;7.13;6.40;;;3.40;99.90;;;;;;5031125;28;20484;-73
2021/04/12 04:12:12;;;;;;;9.38;7.22;;;3.60;99.90;;;;;;5032315;28;20471;-73
2021/04/12 04:14:56;;;;;;;11.55;8.85;;;3.70;99.90;;;;;;5031794;28;20269;-74
2021/04/12 04:17:55;;;;;;;11.90;7.63;;;3.80;99.90;;;;;;5031757;28;20056;-74
2021/04/12 04:20:39;;;;;;;8.60;7.05;;;3.80;99.90;;;;;;5032121;28;20383;-73
2021/04/12 04:23:28;;;;;;;9.75;7.13;;;3.80;99.90;;;;;;5030250;28;20021;-73
2021/04/12 04:25:56;;;;;;;9.25;7.07;;;3.70;99.90;;;;;;5008930;28;20133;-73
2021/04/12 04:28:31;;;;;;;7.45;6.70;;;3.70;99.90;;;;;;5022954;28;20526;-72
2021/04/12 04:31:06;;;;;;;8.02;7.15;;;3.60;99.90;;;;;;5030323;28;20052;-72
2021/04/12 04:34:08;;;;;;;8.07;6.82;;;3.50;99.90;;;;;;5030060;28;20026;-72
2021/04/12 04:36:59;;;;;;;8.05;7.18;;;3.50;99.90;;;;;;5024892;28;20026;-72
2021/04/12 04:39:31;;;;;;;7.72;6.93;;;3.50;99.90;;;;;;5017888;28;20483;-71
2021/04/12 04:42:23;;;;;;;7.30;6.60;;;3.40;99.90;;;;;;5031235;28;20078;-70
2021/04/12 04:45:22;;;;;;;8.55;7.60;;;3.40;99.90;;;;;;5019712;28;20033;-74
2021/04/12 04:47:59;;;;;;;9.38;7.68;;;3.60;99.90;;;;;;5011842;28;20073;-73
2021/04/12 04:50:43;;;;;;;10.77;7.45;;;3.70;99.90;;;;;;5029662;28;20502;-72
2021/04/12 04:53:21;;;;;;;8.48;7.05;;;3.50;99.90;;;;;;5031500;28;20053;-72
2021/04/12 04:56:14;;;;;;;9.85;7.97;;;3.50;99.90;;;;;;5032869;28;20022;-72
2021/04/12 04:59:30;;;;;;;9.52;7.35;;;3.60;99.90;;;;;;5027201;28;20049;-73
2021/04/12 05:02:35;;;;;;;8.10;7.03;;;3.60;99.90;;;;;;5013179;28;20045;-72
2021/04/12 05:05:20;;;;;;;8.77;7.68;;;3.50;99.90;;;;;;5038544;28;20025;-72
2021/04/12 05:08:01;;;;;;;8.88;6.82;;;3.40;99.90;;;;;;5040399;28;20022;-73
2021/04/12 05:10:42;;;;;;;8.10;6.80;;;3.40;99.90;;;;;;5038626;28;20017;-72
2021/04/12 05:13:33;;;;;;;8.70;7.80;;;3.40;99.90;;;;;;5037483;28;20018;-70
2021/04/12 05:16:30;;;;;;;10.23;8.55;;;3.70;99.90;;;;;;5033703;28;20041;-70
2021/04/12 05:19:29;;;;;;;9.45;7.78;;;3.90;99.90;;;;;;5030722;28;20442;-70
2021/04/12 05:21:58;;;;;;;6.68;5.97;;;4.10;99.90;;;;;;5038270;28;20056;-70
2021/04/12 05:25:02;;;;;;;6.68;5.97;;;4.10;99.90;;;;;;5034555;28;20398;-69
2021/04/12 05:27:49;;;;;;;8.13;6.15;;;4.30;99.90;;;;;;4998548;28;20152;-70
2021/04/12 05:30:23;;;;;;;6.70;6.03;;;4.30;99.90;;;;;;5031501;28;20017;-70
2021/04/12 05:33:17;;;;;;;5.13;4.63;;;4.30;99.90;;;;;;5031181;28;20018;-71
2021/04/12 05:36:04;;;;;;;5.57;5.07;;;4.40;99.90;;;;;;5031401;28;20033;-72
2021/04/12 05:38:56;;;;;;;4.40;4.00;;;4.30;99.90;;;;;;5031270;28;20538;-74
2021/04/12 05:41:49;;;;;;;4.63;4.05;;;4.00;99.90;;;;;;5033245;28;20025;-72
2021/04/12 05:44:53;;;;;;;4.45;4.05;;;3.80;99.90;;;;;;5030459;28;20026;-71
2021/04/12 05:47:25;;;;;;;4.80;4.40;;;3.80;99.90;;;;;;4988260;28;20026;-71
2021/04/12 05:50:02;;;;;;;4.55;4.15;;;3.80;99.90;;;;;;4989708;28;20027;-72
2021/04/12 05:52:56;;;;;;;4.55;4.13;;;3.90;99.90;;;;;;5004171;28;20083;-72
2021/04/12 05:56:02;;;;;;;4.85;4.45;;;3.90;99.90;;;;;;5012655;28;20069;-71
2021/04/12 05:58:31;;;;;;;3.67;3.38;;;4.00;99.90;;;;;;5022768;28;20036;-72
2021/04/12 06:01:18;;;;;;;4.78;4.28;;;3.70;99.90;;;;;;5030939;28;20105;-71
2021/04/12 06:04:20;;;;;;;4.13;3.83;;;3.50;99.90;;;;;;5030187;28;20049;-71
2021/04/12 06:07:13;;;;;;;8.55;4.53;;;3.20;99.90;;;;;;5031134;28;20106;-70
2021/04/12 06:10:07;;;;;;;5.25;4.75;;;3.10;99.90;;;;;;5031864;28;20033;-72
2021/04/12 06:12:51;;;;;;;5.35;4.85;;;3.30;99.90;;;;;;5034336;28;20068;-72
2021/04/12 06:15:25;;;;;;;5.50;4.72;;;3.30;99.90;;;;;;5034305;28;20029;-73
2021/04/12 06:18:32;;;;;;;6.18;5.57;;;3.50;99.90;;;;;;5034954;28;20025;-73
2021/04/12 06:21:07;;;;;;;6.00;5.50;;;3.70;99.90;;;;;;5020411;28;20072;-72
2021/04/12 06:23:36;;;;;;;7.43;5.72;;;3.50;99.90;;;;;;5033685;28;20096;-73
2021/04/12 06:26:18;;;;;;;7.00;5.82;;;3.40;99.90;;;;;;5034083;28;20364;-69
2021/04/12 06:29:15;;;;;;;9.65;6.15;;;3.30;99.90;;;;;;5034393;28;20018;-70
2021/04/12 06:31:47;;;;;;;11.93;6.85;;;3.40;99.90;;;;;;5032028;28;20450;-71
2021/04/12 06:34:42;;;;;;;7.82;6.85;;;3.40;99.90;;;;;;5019566;28;20026;-70
2021/04/12 06:37:32;;;;;;;8.88;6.13;;;3.70;99.90;;;;;;5025865;28;20048;-72
2021/04/12 06:40:31;;;;;;;9.52;5.93;;;3.70;99.90;;;;;;5013265;28;20384;-71
2021/04/12 06:43:24;;;;;;;8.10;6.90;;;3.70;99.90;;;;;;5015254;28;20030;-71
2021/04/12 06:46:14;;;;;;;8.70;7.00;;;3.70;99.90;;;;;;5012086;28;20029;-74
2021/04/12 06:48:59;;;;;;;7.70;7.00;;;3.80;99.90;;;;;;5012368;28;20025;-69
2021/04/12 06:51:50;;;;;;;10.07;6.85;;;3.80;99.90;;;;;;5014271;28;20033;-70
2021/04/12 06:54:41;;;;;;;9.18;7.05;;;3.80;99.90;;;;;;5020954;28;20033;-71
2021/04/12 06:57:25;;;;;;;8.73;6.93;;;4.00;99.90;;;;;;5034693;28;20022;-70
2021/04/12 07:00:28;;;;;;;6.90;6.20;;;4.00;99.90;;;;;;5016793;28;20026;-70
2021/04/12 07:03:47;;;;;;;8.88;6.60;;;4.10;99.90;;;;;;5026696;28;20108;-70
2021/04/12 07:06:41;;;;;;;10.32;7.38;;;4.20;99.90;;;;;;5034833;28;20033;-71
2021/04/12 07:09:19;;;;;;;9.38;8.38;;;4.10;99.90;;;;;;5034245;28;20108;-70
2021/04/12 07:12:06;;;;;;;9.63;7.70;;;4.20;99.90;;;;;;5033618;28;20060;-70
2021/04/12 07:14:50;;;;;;;11.05;8.02;;;4.10;99.90;;;;;;5032985;28;20053;-70
2021/04/12 07:17:38;;;;;;;12.68;8.63;;;4.00;99.90;;;;;;5032845;28;20387;-70
2021/04/12 07:20:25;;;;;;;9.55;7.20;;;4.00;99.90;;;;;;5033638;28;20045;-71
2021/04/12 07:23:23;;;;;;;10.82;8.02;;;3.90;99.90;;;;;;5031281;28;20022;-72
2021/04/12 07:26:17;;;;;;;10.90;8.13;;;3.70;99.90;;;;;;5029645;28;20025;-72
2021/04/12 07:29:20;;;;;;;8.57;7.57;;;3.80;99.90;;;;;;5033169;28;20029;-72
2021/04/12 07:32:23;;;;;;;11.00;7.85;;;3.80;99.90;;;;;;5033358;28;20021;-70
2021/04/12 07:34:57;;;;;;;13.27;7.80;;;4.10;99.90;;;;;;5032321;28;20045;-71
2021/04/12 07:37:53;;;;;;;10.68;8.60;;;4.00;99.90;;;;;;5033166;28;20033;-70
2021/04/12 07:41:00;;;;;;;14.40;8.80;;;3.80;99.90;;;;;;5023293;28;20491;-71
2021/04/12 07:44:00;;;;;;;12.48;9.65;;;3.70;99.90;;;;;;5016615;28;20112;-71
2021/04/12 07:46:50;;;;;;;13.73;9.40;;;4.00;99.90;;;;;;5012897;28;20106;-71
2021/04/12 07:50:04;;;;;;;15.07;9.82;;;4.20;99.90;;;;;;5013225;28;20036;-71
2021/04/12 07:53:14;;;;;;;13.55;9.45;;;4.40;99.90;;;;;;5011025;28;20080;-71
2021/04/12 07:55:58;;;;;;;11.35;8.82;;;4.60;99.90;;;;;;5028999;28;20041;-71
2021/04/12 07:58:38;;;;;;;10.65;8.68;;;4.60;99.90;;;;;;5033462;28;20491;-72
2021/04/12 08:01:41;;;;;;;15.88;9.30;;;4.80;99.90;;;;;;5032892;28;20028;-71
2021/04/12 08:04:31;;;;;;;11.90;9.32;;;5.00;99.90;;;;;;5032487;28;20021;-71
2021/04/12 08:07:30;;;;;;;10.43;8.95;;;5.20;99.90;;;;;;5024554;28;20025;-71
2021/04/12 08:10:08;;;;;;;10.98;9.65;;;5.30;99.90;;;;;;5011466;28;20057;-72
2021/04/12 08:12:46;;;;;;;12.65;9.35;;;5.40;99.90;;;;;;5012643;28;20101;-71
2021/04/12 08:15:43;;;;;;;10.75;8.15;;;5.60;99.90;;;;;;5014510;28;20029;-71
2021/04/12 08:18:08;;;;;;;14.05;9.38;;;5.00;99.90;;;;;;5022191;28;20092;-71
2021/04/12 08:20:53;;;;;;;10.23;8.93;;;4.80;99.90;;;;;;5035944;28;20045;-71
2021/04/12 08:23:43;;;;;;;11.52;9.82;;;4.90;99.90;;;;;;5032998;28;20064;-72
2021/04/12 08:26:23;;;;;;;11.40;9.77;;;5.30;99.90;;;;;;5034072;28;20383;-74
2021/04/12 08:29:23;;;;;;;12.70;10.20;;;5.40;99.90;;;;;;5034625;28;20100;-71
2021/04/12 08:32:07;;;;;;;11.85;8.80;;;5.60;99.90;;;;;;5032405;28;20029;-71
2021/04/12 08:34:54;;;;;;;12.63;10.02;;;5.60;99.90;;;;;;5031100;28;20049;-72
2021/04/12 08:37:53;;;;;;;12.40;10.45;;;5.80;99.90;;;;;;5030078;28;20053;-71
2021/04/12 08:40:33;;;;;;;14.98;10.25;;;6.00;99.90;;;;;;5032500;28;20048;-71
2021/04/12 08:43:00;;;;;;;12.30;9.77;;;6.10;99.90;;;;;;5031352;28;20113;-72
2021/04/12 08:45:55;;;;;;;11.35;9.93;;;6.10;99.90;;;;;;5031314;28;20128;-72
2021/04/12 08:48:41;;;;;;;14.13;10.60;;;5.90;99.90;;;;;;5030756;28;20059;-72
2021/04/12 08:51:25;;;;;;;11.45;9.50;;;6.10;99.90;;;;;;5000394;28;20075;-72
2021/04/12 08:54:17;;;;;;;11.90;10.52;;;5.90;99.90;;;;;;5030410;28;20029;-72
2021/04/12 08:57:08;;;;;;;15.40;10.90;;;5.80;99.90;;;;;;5031388;28;20033;-71
2021/04/12 09:00:11;;;;;;;11.93;9.40;;;5.80;99.90;;;;;;5012176;28;20053;-72
2021/04/12 09:03:04;;;;;;;15.65;10.00;;;5.80;99.90;;;;;;5010482;28;20026;-72
2021/04/12 09:06:11;;;;;;;12.52;9.82;;;5.60;99.90;;;;;;5015431;28;20034;-72
2021/04/12 09:09:18;;;;;;;11.82;10.32;;;5.40;99.90;;;;;;5013480;28;20034;-72
2021/04/12 09:12:19;;;;;;;13.55;9.90;;;5.50;99.90;;;;;;5009035;28;20041;-72
2021/04/12 09:15:24;;;;;;;16.45;12.60;;;5.60;99.90;;;;;;4991505;28;20101;-73
2021/04/12 09:18:16;;;;;;;15.18;9.68;;;5.80;99.90;;;;;;5014317;28;20025;-73
2021/04/12 09:21:19;;;;;;;11.63;10.32;;;6.00;99.90;;;;;;5024617;28;20530;-73
2021/04/12 09:23:53;;;;;;;15.13;8.80;;;6.10;99.90;;;;;;5030338;28;20033;-72
2021/04/12 09:26:40;;;;;;;11.85;9.07;;;6.00;99.90;;;;;;5036511;28;20476;-72
2021/04/12 09:29:43;;;;;;;9.93;8.55;;;6.20;99.90;;;;;;5036324;28;20441;-72
2021/04/12 09:32:18;;;;;;;9.95;7.90;;;6.50;99.90;;;;;;5026164;28;20026;-73
2021/04/12 09:35:05;;;;;;;10.20;7.05;;;6.50;99.90;;;;;;5014420;28;20022;-71
2021/04/12 09:37:48;;;;;;;11.50;7.65;;;6.40;99.90;;;;;;5014305;28;20068;-71
2021/04/12 09:40:14;;;;;;;8.65;7.57;;;6.10;99.90;;;;;;5017609;28;20018;-71
2021/04/12 09:43:06;;;;;;;10.75;7.20;;;5.70;99.90;;;;;;5017274;28;20088;-73
2021/04/12 09:45:47;;;;;;;11.05;7.22;;;5.80;99.90;;;;;;5021458;28;20022;-72
2021/04/12 09:48:35;;;;;;;9.82;6.93;;;6.10;99.90;;;;;;5039391;28;20029;-73
2021/04/12 09:51:29;;;;;;;7.88;6.80;;;6.30;99.90;;;;;;5041233;28;20073;-72
2021/04/12 09:54:20;;;;;;;9.43;6.88;;;6.30;99.90;;;;;;5009751;28;20176;-71
2021/04/12 09:57:00;;;;;;;8.63;6.03;;;6.40;99.90;;;;;;5039547;28;20029;-71
2021/04/12 09:59:44;;;;;;;12.63;6.32;;;6.30;99.90;;;;;;5036249;28;20112;-70
2021/04/12 10:02:41;;;;;;;13.27;6.05;;;6.30;99.90;;;;;;5034939;28;20033;-70
2021/04/12 10:05:34;;;;;;;7.72;5.57;;;6.60;99.90;;;;;;5036177;28;20021;-70
2021/04/12 10:08:28;;;;;;;9.88;5.72;;;8.00;99.90;;;;;;5038810;28;20371;-72
2021/04/12 10:10:58;;;;;;;6.03;4.97;;;8.20;99.90;;;;;;5034653;28;20021;-73
2021/04/12 10:13:32;;;;;;;8.35;5.20;;;7.90;99.90;;;;;;5034331;28;20029;-73
2021/04/12 10:16:04;;;;;;;5.25;4.53;;;7.60;99.90;;;;;;5034427;28;20795;-72
2021/04/12 10:18:59;;;;;;;4.68;4.18;;;7.50;99.90;;;;;;5034688;28;20479;-74
2021/04/12 10:21:52;;;;;;;7.30;6.00;;;7.90;99.90;;;;;;5031022;28;20132;-72
2021/04/12 10:24:27;;;;;;;6.40;4.85;;;8.40;99.90;;;;;;5018701;28;20013;-72
2021/04/12 10:27:21;;;;;;;6.68;3.83;;;8.50;99.90;;;;;;5032480;28;20392;-73
2021/04/12 10:30:01;;;;;;;4.47;3.58;;;7.80;99.90;;;;;;5034463;28;20021;-71
2021/04/12 10:32:32;;;;;;;5.90;3.65;;;7.50;99.90;;;;;;5034441;28;20086;-72
2021/04/12 10:35:21;;;;;;;6.68;3.95;;;7.40;99.90;;;;;;5033563;28;20033;-72
2021/04/12 10:38:09;;;;;;;6.68;3.88;;;7.50;99.90;;;;;;5034344;28;20058;-73
2021/04/12 10:40:35;;;;;;;5.65;3.10;;;7.50;99.90;;;;;;5033949;28;20095;-73
2021/04/12 10:43:11;;;;;;;2.90;2.17;;;7.20;99.90;;;;;;5030830;28;20022;-73
2021/04/12 10:45:48;;;;;;;2.90;2.30;;;7.40;99.90;;;;;;5014850;28;20018;-73
2021/04/12 10:48:20;;;;;;;3.95;2.30;;;7.80;99.90;;;;;;5014185;28;20025;-72
2021/04/12 10:51:04;;;;;;;3.47;2.95;;;7.80;99.90;;;;;;5014194;28;20026;-74
2021/04/12 10:54:29;;;;;;;4.30;2.40;;;7.80;99.90;;;;;;5013608;28;20022;-73
2021/04/12 10:57:22;;;;;;;3.25;2.65;;;8.00;99.90;;;;;;5013397;28;20479;-71
2021/04/12 11:00:31;;;;;;;4.32;2.92;;;8.00;99.90;;;;;;5013846;28;20356;-71
2021/04/12 11:03:44;;;;;;;5.68;2.53;;;7.70;99.90;;;;;;4955693;28;20027;-71
2021/04/12 11:06:26;;;;;;;4.47;2.85;;;7.70;99.90;;;;;;5011965;28;20038;-72
2021/04/12 11:09:11;;;;;;;5.70;3.03;;;8.00;99.90;;;;;;5014146;28;20057;-73
2021/04/12 11:12:16;;;;;;;4.88;2.65;;;7.80;99.90;;;;;;5029008;28;20487;-71
2021/04/12 11:15:06;;;;;;;4.72;2.75;;;7.60;99.90;;;;;;5033785;28;20038;-72
2021/04/12 11:17:55;;;;;;;5.53;2.60;;;7.80;99.90;;;;;;5025607;28;20240;-72
2021/04/12 11:20:39;;;;;;;2.42;2.15;;;8.10;99.90;;;;;;5032292;28;20073;-72
2021/04/12 11:23:19;;;;;;;2.40;2.05;;;9.50;99.90;;;;;;5032960;28;20134;-74
2021/04/12 11:26:03;;;;;;;4.00;2.50;;;9.60;99.90;;;;;;5033339;28;20022;-73
2021/04/12 11:28:35;;;;;;;3.65;2.40;;;9.70;99.90;;;;;;5033625;28;20021;-74
2021/04/12 11:31:25;;;;;;;2.75;2.20;;;9.80;99.90;;;;;;5034643;28;20029;-73
2021/04/12 11:34:12;;;;;;;5.93;2.28;;;10.10;99.90;;;;;;5033640;28;20037;-72
2021/04/12 11:36:59;;;;;;;5.03;1.90;;;10.10;99.90;;;;;;5033736;28;20395;-73
2021/04/12 11:39:31;;;;;;;2.63;2.10;;;9.70;99.90;;;;;;5033535;28;20108;-72
2021/04/12 11:42:12;;;;;;;8.18;1.98;;;9.40;99.00;;;;;;5032150;28;20025;-73
2021/04/12 11:44:50;;;;;;;2.08;1.83;;;9.00;98.40;;;;;;5033032;28;20033;-72
2021/04/12 11:47:23;;;;;;;2.85;1.90;;;8.70;99.90;;;;;;5032087;28;20037;-72
2021/04/12 11:50:22;;;;;;;4.55;2.25;;;8.60;99.90;;;;;;5033006;28;20055;-71
2021/04/12 11:53:08;;;;;;;3.90;1.83;;;8.80;99.90;;;;;;5038054;28;20033;-72
2021/04/12 11:55:38;;;;;;;3.20;2.10;;;8.40;99.90;;;;;;5018769;28;20503;-72
2021/04/12 11:58:29;;;;;;;5.43;2.35;;;8.10;99.90;;;;;;5012910;28;20033;-73
2021/04/12 12:01:12;;;;;;;4.18;2.45;;;8.20;99.90;;;;;;5012670;28;20049;-73
2021/04/12 12:04:13;;;;;;;4.40;2.65;;;8.40;99.90;;;;;;5012714;28;20026;-73
2021/04/12 12:06:54;;;;;;;4.05;2.45;;;7.90;99.90;;;;;;4995855;28;20069;-72
2021/04/12 12:09:26;;;;;;;6.05;2.88;;;7.70;99.90;;;;;;5017507;28;20029;-71
2021/04/12 12:12:25;;;;;;;3.00;2.30;;;8.20;99.90;;;;;;5032569;28;20570;-72
2021/04/12 12:15:11;;;;;;;2.47;2.05;;;9.00;99.90;;;;;;5028862;28;20038;-73
2021/04/12 12:18:07;;;;;;;4.97;2.20;;;9.40;99.90;;;;;;5035491;28;20624;-74
2021/04/12 12:20:45;;;;;;;3.38;2.20;;;9.80;99.30;;;;;;5030119;28;20033;-72
2021/04/12 12:23:22;;;;;;;4.80;2.55;;;11.40;97.30;;;;;;5039018;28;20045;-73
2021/04/12 12:25:50;;;;;;;7.50;2.10;;;12.90;95.40;;;;;;5035870;28;20105;-74
2021/04/12 12:28:22;;;;;;;3.30;1.95;;;13.80;91.80;;;;;;5039181;28;20021;-73
2021/04/12 12:31:10;;;;;;;3.95;1.73;;;13.50;88.70;;;;;;5037503;28;20563;-72
2021/04/12 12:34:04;;;;;;;8.43;2.45;;;12.90;85.80;;;;;;5031379;28;20040;-73
2021/04/12 12:36:54;;;;;;;3.58;2.13;;;11.80;90.30;;;;;;5031778;28;20087;-72
2021/04/12 12:39:32;;;;;;;7.57;3.33;;;10.50;91.60;;;;;;5031888;28;20067;-71
2021/04/12 12:42:02;;;;;;;11.63;3.85;;;9.90;93.60;;;;;;5032311;28;20106;-72
2021/04/12 12:44:30;;;;;;;6.38;2.70;;;9.30;95.70;;;;;;5031479;28;20387;-72
2021/04/12 12:46:57;;;;;;;4.40;2.42;;;8.60;95.50;;;;;;5024315;28;20038;-74
2021/04/12 12:49:30;;;;;;;5.43;2.90;;;8.10;97.60;;;;;;5026636;28;20037;-74
2021/04/12 12:52:03;;;;;;;6.38;3.17;;;8.00;98.10;;;;;;5024959;28;20045;-73
2021/04/12 12:54:32;;;;;;;;;;;8.00;99.30;;;;;;5022873;28;20168;-74
2021/04/12 12:57:05;;;;;;;3.45;3.03;;;8.00;98.00;;;;;;5021368;28;19913;-73
2021/04/12 12:59:38;;;;;;;4.78;3.05;;;7.80;99.90;;;;;;5013590;28;20643;-74
2021/04/12 13:02:18;;;;;;;3.60;2.80;;;7.70;99.90;;;;;;5010870;28;20018;-73
2021/04/12 13:04:55;;;;;;;3.58;3.08;;;7.50;99.90;;;;;;5011292;28;20357;-73
2021/04/12 13:07:21;;;;;;;3.45;2.88;;;7.50;99.90;;;;;;5011802;28;20033;-73
2021/04/12 13:10:02;;;;;;;5.22;2.90;;;7.60;99.90;;;;;;5021181;28;20032;-72
2021/04/12 13:12:32;;;;;;;5.28;3.20;;;7.50;99.90;;;;;;5031804;28;20546;-74
2021/04/12 13:15:18;;;;;;;9.30;3.28;;;7.50;99.90;;;;;;5031440;28;20026;-72
2021/04/12 13:17:44;;;;;;;3.05;2.40;;;7.60;99.90;;;;;;5031921;28;20092;-72
2021/04/12 13:20:13;;;;;;;4.90;3.25;;;7.70;99.90;;;;;;5038013;28;20037;-71
2021/04/12 13:22:46;;;;;;;2.70;2.47;;;7.80;99.90;;;;;;5037677;28;20104;-72
2021/04/12 13:25:30;;;;;;;6.65;3.08;;;7.60;98.70;;;;;;5038134;28;20475;-73
2021/04/12 13:28:19;;;;;;;5.85;2.83;;;7.50;99.90;;;;;;5038371;28;20411;-72
2021/04/12 13:31:08;;;;;;;5.63;2.42;;;8.00;99.90;;;;;;5030600;28;20033;-71
2021/04/12 13:33:47;;;;;;;3.25;2.70;;;8.40;98.30;;;;;;5037079;28;20454;-73
2021/04/12 13:36:51;;;;;;;2.30;2.10;;;9.20;98.30;;;;;;5037652;28;20041;-73
2021/04/12 13:39:44;;;;;;;5.32;1.95;;;9.70;96.50;;;;;;5059370;23;20038;-73
2021/04/12 13:42:35;;;;;;;3.60;2.30;;;9.30;97.30;;;;;;4969335;28;20041;-74
2021/04/12 13:45:08;;;;;;;2.50;2.13;;;9.60;96.90;;;;;;4958491;28;20051;-73
2021/04/12 13:47:46;;;;;;;3.38;1.90;;;10.00;95.10;;;;;;4955685;28;20035;-72
2021/04/12 13:50:17;;;;;;;2.30;2.10;;;10.30;94.00;;;;;;4966048;28;20028;-76
2021/04/12 13:53:05;;;;;;;9.05;2.85;;;10.10;95.60;;;;;;4976472;28;20027;-75
2021/04/12 13:55:45;;;;;;;2.22;1.80;;;9.80;92.60;;;;;;4963222;28;20031;-74
2021/04/12 13:58:16;;;;;;;4.70;2.13;;;8.50;95.40;;;;;;4957988;29;20062;-72
2021/04/12 14:00:51;;;;;;;3.60;2.40;;;8.50;95.90;;;;;;4958712;28;20066;-74
2021/04/12 14:03:25;;;;;;;7.05;2.35;;;8.70;96.90;;;;;;4958902;28;20393;-73
2021/04/12 14:06:06;;;;;;;8.85;2.88;;;8.40;96.50;;;;;;4958936;29;20038;-74
2021/04/12 14:08:59;;;;;;;2.05;1.92;;;7.70;94.70;;;;;;4959259;28;20031;-73
2021/04/12 14:11:43;;;;;;;6.55;2.40;;;7.60;97.40;;;;;;4954955;29;20605;-72
2021/04/12 14:14:38;;;;;;;3.85;2.17;;;7.70;97.00;;;;;;4958059;28;20031;-73
2021/04/12 14:17:18;;;;;;;5.30;2.70;;;7.60;96.70;;;;;;4950003;29;20063;-74
2021/04/12 14:19:50;;;;;;;4.13;2.65;;;7.40;96.40;;;;;;4958887;28;20111;-74
2021/04/12 14:22:50;;;;;;;7.22;3.13;;;7.70;97.30;;;;;;4959280;28;20024;-77
2021/04/12 14:25:48;;;;;;;3.88;2.95;;;7.90;97.40;;;;;;4974986;28;20035;-76
2021/04/12 14:28:24;;;;;;;4.45;2.33;;;7.90;96.50;;;;;;4971527;28;20031;-76
2021/04/12 14:30:54;;;;;;;3.72;2.03;;;8.20;96.20;;;;;;4973619;28;20094;-78
2021/04/12 14:33:33;;;;;;;4.05;2.10;;;9.00;92.50;;;;;;4972136;28;20106;-78